sensor_id;sensor_type;location;lat;lon;timestamp;P1;durP1;ratioP1;P2;durP2;ratioP2
17253;SDS011;32542;52.832;13.816;2023-02-11T00:02:35;14.57;;;7.65;;
17253;SDS011;32542;52.832;13.816;2023-02-11T00:05:38;15.10;;;6.78;;
17253;SDS011;32542;52.832;13.816;2023-02-11T00:08:41;11.93;;;6.68;;
17253;SDS011;32542;52.832;13.816;2023-02-11T00:11:44;13.57;;;6.72;;
17253;SDS011;32542;52.832;13.816;2023-02-11T00:14:48;13.43;;;6.63;;
17253;SDS011;32542;52.832;13.816;2023-02-11T00:17:52;11.45;;;6.80;;
17253;SDS011;32542;52.832;13.816;2023-02-11T00:20:55;11.73;;;5.88;;
17253;SDS011;32542;52.832;13.816;2023-02-11T00:23:58;10.98;;;6.40;;
17253;SDS011;32542;52.832;13.816;2023-02-11T00:27:02;10.68;;;6.03;;
17253;SDS011;32542;52.832;13.816;2023-02-11T00:30:07;11.10;;;6.10;;
17253;SDS011;32542;52.832;13.816;2023-02-11T00:33:11;10.27;;;5.70;;
17253;SDS011;32542;52.832;13.816;2023-02-11T00:36:15;8.65;;;6.05;;
17253;SDS011;32542;52.832;13.816;2023-02-11T00:39:20;8.82;;;5.97;;
17253;SDS011;32542;52.832;13.816;2023-02-11T00:42:23;10.80;;;6.32;;
17253;SDS011;32542;52.832;13.816;2023-02-11T00:45:27;10.32;;;6.30;;
17253;SDS011;32542;52.832;13.816;2023-02-11T00:48:31;11.43;;;6.18;;
17253;SDS011;32542;52.832;13.816;2023-02-11T00:51:34;10.63;;;5.10;;
17253;SDS011;32542;52.832;13.816;2023-02-11T00:54:37;9.77;;;6.00;;
17253;SDS011;32542;52.832;13.816;2023-02-11T00:57:40;10.50;;;6.55;;
17253;SDS011;32542;52.832;13.816;2023-02-11T01:00:44;7.47;;;5.78;;
17253;SDS011;32542;52.832;13.816;2023-02-11T01:03:47;9.27;;;5.57;;
17253;SDS011;32542;52.832;13.816;2023-02-11T01:06:50;12.35;;;5.70;;
17253;SDS011;32542;52.832;13.816;2023-02-11T01:09:53;10.13;;;5.90;;
17253;SDS011;32542;52.832;13.816;2023-02-11T01:12:57;10.93;;;5.93;;
17253;SDS011;32542;52.832;13.816;2023-02-11T01:16:01;8.65;;;5.80;;
17253;SDS011;32542;52.832;13.816;2023-02-11T01:19:05;9.10;;;5.88;;
17253;SDS011;32542;52.832;13.816;2023-02-11T01:22:08;10.82;;;5.95;;
17253;SDS011;32542;52.832;13.816;2023-02-11T01:25:11;8.38;;;5.90;;
17253;SDS011;32542;52.832;13.816;2023-02-11T01:28:15;10.13;;;6.10;;
17253;SDS011;32542;52.832;13.816;2023-02-11T01:31:20;8.57;;;5.75;;
17253;SDS011;32542;52.832;13.816;2023-02-11T01:34:23;9.23;;;5.78;;
17253;SDS011;32542;52.832;13.816;2023-02-11T01:37:26;9.95;;;6.00;;
17253;SDS011;32542;52.832;13.816;2023-02-11T01:40:30;8.52;;;5.53;;
17253;SDS011;32542;52.832;13.816;2023-02-11T01:43:36;8.20;;;5.50;;
17253;SDS011;32542;52.832;13.816;2023-02-11T01:46:42;7.45;;;5.50;;
17253;SDS011;32542;52.832;13.816;2023-02-11T01:49:46;11.40;;;5.88;;
17253;SDS011;32542;52.832;13.816;2023-02-11T01:52:52;7.25;;;5.43;;
17253;SDS011;32542;52.832;13.816;2023-02-11T01:56:17;8.52;;;6.03;;
17253;SDS011;32542;52.832;13.816;2023-02-11T01:59:40;9.25;;;6.00;;
17253;SDS011;32542;52.832;13.816;2023-02-11T02:02:51;9.35;;;6.18;;
17253;SDS011;32542;52.832;13.816;2023-02-11T02:05:59;8.60;;;5.57;;
17253;SDS011;32542;52.832;13.816;2023-02-11T02:09:10;8.15;;;5.57;;
17253;SDS011;32542;52.832;13.816;2023-02-11T02:12:18;8.05;;;5.53;;
17253;SDS011;32542;52.832;13.816;2023-02-11T02:15:23;7.82;;;5.40;;
17253;SDS011;32542;52.832;13.816;2023-02-11T02:18:35;8.85;;;5.70;;
17253;SDS011;32542;52.832;13.816;2023-02-11T02:21:51;9.02;;;5.95;;
17253;SDS011;32542;52.832;13.816;2023-02-11T02:25:23;7.10;;;5.50;;
17253;SDS011;32542;52.832;13.816;2023-02-11T02:28:45;8.25;;;5.57;;
17253;SDS011;32542;52.832;13.816;2023-02-11T02:32:17;7.95;;;4.90;;
17253;SDS011;32542;52.832;13.816;2023-02-11T02:35:33;7.70;;;5.20;;
17253;SDS011;32542;52.832;13.816;2023-02-11T02:38:45;7.75;;;5.50;;
17253;SDS011;32542;52.832;13.816;2023-02-11T02:41:52;7.57;;;5.30;;
17253;SDS011;32542;52.832;13.816;2023-02-11T02:44:57;8.32;;;5.40;;
17253;SDS011;32542;52.832;13.816;2023-02-11T02:48:01;6.68;;;5.00;;
17253;SDS011;32542;52.832;13.816;2023-02-11T02:51:07;8.98;;;5.95;;
17253;SDS011;32542;52.832;13.816;2023-02-11T02:54:25;6.97;;;5.57;;
17253;SDS011;32542;52.832;13.816;2023-02-11T02:57:46;7.47;;;5.30;;
17253;SDS011;32542;52.832;13.816;2023-02-11T03:01:07;7.15;;;4.88;;
17253;SDS011;32542;52.832;13.816;2023-02-11T03:04:20;8.43;;;5.18;;
17253;SDS011;32542;52.832;13.816;2023-02-11T03:07:29;7.40;;;5.22;;
17253;SDS011;32542;52.832;13.816;2023-02-11T03:10:39;8.77;;;5.28;;
17253;SDS011;32542;52.832;13.816;2023-02-11T03:13:45;7.38;;;5.03;;
17253;SDS011;32542;52.832;13.816;2023-02-11T03:16:51;8.70;;;5.20;;
17253;SDS011;32542;52.832;13.816;2023-02-11T03:20:00;8.25;;;5.50;;
17253;SDS011;32542;52.832;13.816;2023-02-11T03:23:05;8.95;;;5.10;;
17253;SDS011;32542;52.832;13.816;2023-02-11T03:26:13;7.95;;;5.28;;
17253;SDS011;32542;52.832;13.816;2023-02-11T03:29:22;6.50;;;4.68;;
17253;SDS011;32542;52.832;13.816;2023-02-11T03:32:34;6.90;;;4.72;;
17253;SDS011;32542;52.832;13.816;2023-02-11T03:35:42;6.97;;;5.07;;
17253;SDS011;32542;52.832;13.816;2023-02-11T03:38:53;7.18;;;5.28;;
17253;SDS011;32542;52.832;13.816;2023-02-11T03:42:00;7.15;;;4.88;;
17253;SDS011;32542;52.832;13.816;2023-02-11T03:45:06;7.90;;;4.90;;
17253;SDS011;32542;52.832;13.816;2023-02-11T03:48:13;8.20;;;5.35;;
17253;SDS011;32542;52.832;13.816;2023-02-11T03:51:21;8.65;;;5.05;;
17253;SDS011;32542;52.832;13.816;2023-02-11T03:54:27;7.93;;;4.82;;
17253;SDS011;32542;52.832;13.816;2023-02-11T03:57:32;8.85;;;4.88;;
17253;SDS011;32542;52.832;13.816;2023-02-11T04:00:36;8.25;;;5.28;;
17253;SDS011;32542;52.832;13.816;2023-02-11T04:03:41;8.05;;;5.03;;
17253;SDS011;32542;52.832;13.816;2023-02-11T04:06:45;6.57;;;4.53;;
17253;SDS011;32542;52.832;13.816;2023-02-11T04:09:48;6.15;;;4.53;;
17253;SDS011;32542;52.832;13.816;2023-02-11T04:12:51;9.27;;;5.13;;
17253;SDS011;32542;52.832;13.816;2023-02-11T04:15:56;6.35;;;4.60;;
17253;SDS011;32542;52.832;13.816;2023-02-11T04:18:59;6.82;;;4.80;;
17253;SDS011;32542;52.832;13.816;2023-02-11T04:22:04;7.88;;;5.03;;
17253;SDS011;32542;52.832;13.816;2023-02-11T04:25:08;6.57;;;4.50;;
17253;SDS011;32542;52.832;13.816;2023-02-11T04:28:11;6.38;;;4.63;;
17253;SDS011;32542;52.832;13.816;2023-02-11T04:31:14;8.20;;;5.03;;
17253;SDS011;32542;52.832;13.816;2023-02-11T04:34:17;5.85;;;4.47;;
17253;SDS011;32542;52.832;13.816;2023-02-11T04:37:21;6.90;;;4.50;;
17253;SDS011;32542;52.832;13.816;2023-02-11T04:40:24;6.30;;;4.20;;
17253;SDS011;32542;52.832;13.816;2023-02-11T04:43:27;5.47;;;4.28;;
17253;SDS011;32542;52.832;13.816;2023-02-11T04:46:30;5.57;;;4.60;;
17253;SDS011;32542;52.832;13.816;2023-02-11T04:49:33;6.95;;;5.05;;
17253;SDS011;32542;52.832;13.816;2023-02-11T04:52:37;6.75;;;4.75;;
17253;SDS011;32542;52.832;13.816;2023-02-11T04:55:40;5.20;;;4.35;;
17253;SDS011;32542;52.832;13.816;2023-02-11T04:58:43;6.10;;;4.38;;
17253;SDS011;32542;52.832;13.816;2023-02-11T05:01:46;6.05;;;4.55;;
17253;SDS011;32542;52.832;13.816;2023-02-11T05:04:49;5.72;;;4.55;;
17253;SDS011;32542;52.832;13.816;2023-02-11T05:07:54;5.55;;;4.40;;
17253;SDS011;32542;52.832;13.816;2023-02-11T05:10:57;5.95;;;4.32;;
17253;SDS011;32542;52.832;13.816;2023-02-11T05:14:02;6.53;;;4.25;;
17253;SDS011;32542;52.832;13.816;2023-02-11T05:17:05;7.05;;;4.70;;
17253;SDS011;32542;52.832;13.816;2023-02-11T05:20:09;6.18;;;4.07;;
17253;SDS011;32542;52.832;13.816;2023-02-11T05:23:13;8.48;;;4.53;;
17253;SDS011;32542;52.832;13.816;2023-02-11T05:26:17;5.70;;;4.30;;
17253;SDS011;32542;52.832;13.816;2023-02-11T05:29:20;6.63;;;4.50;;
17253;SDS011;32542;52.832;13.816;2023-02-11T05:32:23;6.43;;;4.90;;
17253;SDS011;32542;52.832;13.816;2023-02-11T05:35:26;6.78;;;4.43;;
17253;SDS011;32542;52.832;13.816;2023-02-11T05:38:30;5.90;;;4.40;;
17253;SDS011;32542;52.832;13.816;2023-02-11T05:41:33;7.90;;;4.88;;
17253;SDS011;32542;52.832;13.816;2023-02-11T05:44:36;6.13;;;4.43;;
17253;SDS011;32542;52.832;13.816;2023-02-11T05:47:39;7.45;;;4.80;;
17253;SDS011;32542;52.832;13.816;2023-02-11T05:50:42;6.45;;;4.47;;
17253;SDS011;32542;52.832;13.816;2023-02-11T05:53:47;7.30;;;4.70;;
17253;SDS011;32542;52.832;13.816;2023-02-11T05:56:50;5.07;;;4.20;;
17253;SDS011;32542;52.832;13.816;2023-02-11T05:59:52;7.22;;;4.45;;
17253;SDS011;32542;52.832;13.816;2023-02-11T06:02:55;6.32;;;4.43;;
17253;SDS011;32542;52.832;13.816;2023-02-11T06:05:58;6.72;;;4.10;;
17253;SDS011;32542;52.832;13.816;2023-02-11T06:09:03;5.72;;;3.92;;
17253;SDS011;32542;52.832;13.816;2023-02-11T06:12:06;6.25;;;4.28;;
17253;SDS011;32542;52.832;13.816;2023-02-11T06:15:09;5.10;;;4.45;;
17253;SDS011;32542;52.832;13.816;2023-02-11T06:18:12;5.72;;;3.78;;
17253;SDS011;32542;52.832;13.816;2023-02-11T06:21:15;7.65;;;4.70;;
17253;SDS011;32542;52.832;13.816;2023-02-11T06:24:19;5.50;;;4.10;;
17253;SDS011;32542;52.832;13.816;2023-02-11T06:27:42;5.45;;;4.00;;
17253;SDS011;32542;52.832;13.816;2023-02-11T06:30:45;5.55;;;4.20;;
17253;SDS011;32542;52.832;13.816;2023-02-11T06:33:48;7.03;;;4.90;;
17253;SDS011;32542;52.832;13.816;2023-02-11T06:36:51;6.28;;;4.65;;
17253;SDS011;32542;52.832;13.816;2023-02-11T06:39:55;6.63;;;5.07;;
17253;SDS011;32542;52.832;13.816;2023-02-11T06:42:58;7.03;;;4.65;;
17253;SDS011;32542;52.832;13.816;2023-02-11T06:46:01;8.95;;;4.47;;
17253;SDS011;32542;52.832;13.816;2023-02-11T06:49:04;6.78;;;4.25;;
17253;SDS011;32542;52.832;13.816;2023-02-11T06:52:07;6.53;;;4.20;;
17253;SDS011;32542;52.832;13.816;2023-02-11T06:55:11;5.47;;;4.32;;
17253;SDS011;32542;52.832;13.816;2023-02-11T06:58:14;6.40;;;4.30;;
17253;SDS011;32542;52.832;13.816;2023-02-11T07:01:17;6.15;;;4.20;;
17253;SDS011;32542;52.832;13.816;2023-02-11T07:04:20;8.43;;;4.20;;
17253;SDS011;32542;52.832;13.816;2023-02-11T07:07:23;6.90;;;4.50;;
17253;SDS011;32542;52.832;13.816;2023-02-11T07:10:27;7.30;;;4.10;;
17253;SDS011;32542;52.832;13.816;2023-02-11T07:13:31;4.47;;;3.83;;
17253;SDS011;32542;52.832;13.816;2023-02-11T07:16:34;7.28;;;4.60;;
17253;SDS011;32542;52.832;13.816;2023-02-11T07:19:37;5.65;;;4.15;;
17253;SDS011;32542;52.832;13.816;2023-02-11T07:22:40;6.40;;;3.90;;
17253;SDS011;32542;52.832;13.816;2023-02-11T07:25:44;5.28;;;4.00;;
17253;SDS011;32542;52.832;13.816;2023-02-11T07:28:47;5.03;;;4.05;;
17253;SDS011;32542;52.832;13.816;2023-02-11T07:31:50;5.63;;;4.03;;
17253;SDS011;32542;52.832;13.816;2023-02-11T07:34:53;6.47;;;4.30;;
17253;SDS011;32542;52.832;13.816;2023-02-11T07:37:56;7.78;;;4.10;;
17253;SDS011;32542;52.832;13.816;2023-02-11T07:41:00;7.18;;;4.43;;
17253;SDS011;32542;52.832;13.816;2023-02-11T07:44:04;7.03;;;4.60;;
17253;SDS011;32542;52.832;13.816;2023-02-11T07:47:07;5.90;;;4.15;;
17253;SDS011;32542;52.832;13.816;2023-02-11T07:50:10;5.43;;;4.05;;
17253;SDS011;32542;52.832;13.816;2023-02-11T07:53:13;5.32;;;4.15;;
17253;SDS011;32542;52.832;13.816;2023-02-11T07:56:18;5.82;;;4.05;;
17253;SDS011;32542;52.832;13.816;2023-02-11T07:59:22;6.70;;;4.15;;
17253;SDS011;32542;52.832;13.816;2023-02-11T08:02:25;5.78;;;4.05;;
17253;SDS011;32542;52.832;13.816;2023-02-11T08:05:28;5.97;;;4.00;;
17253;SDS011;32542;52.832;13.816;2023-02-11T08:08:31;6.95;;;4.07;;
17253;SDS011;32542;52.832;13.816;2023-02-11T08:11:35;6.55;;;4.18;;
17253;SDS011;32542;52.832;13.816;2023-02-11T08:14:38;5.85;;;3.80;;
17253;SDS011;32542;52.832;13.816;2023-02-11T08:17:41;7.10;;;4.43;;
17253;SDS011;32542;52.832;13.816;2023-02-11T08:20:44;6.85;;;4.40;;
17253;SDS011;32542;52.832;13.816;2023-02-11T08:23:47;6.43;;;4.35;;
17253;SDS011;32542;52.832;13.816;2023-02-11T08:26:52;7.45;;;4.65;;
17253;SDS011;32542;52.832;13.816;2023-02-11T08:29:55;7.13;;;4.18;;
17253;SDS011;32542;52.832;13.816;2023-02-11T08:33:00;5.95;;;4.20;;
17253;SDS011;32542;52.832;13.816;2023-02-11T08:36:06;5.80;;;4.38;;
17253;SDS011;32542;52.832;13.816;2023-02-11T08:39:11;6.35;;;4.35;;
17253;SDS011;32542;52.832;13.816;2023-02-11T08:42:22;6.85;;;4.85;;
17253;SDS011;32542;52.832;13.816;2023-02-11T08:45:25;6.60;;;4.13;;
17253;SDS011;32542;52.832;13.816;2023-02-11T08:48:28;4.75;;;3.90;;
17253;SDS011;32542;52.832;13.816;2023-02-11T08:51:31;6.18;;;3.88;;
17253;SDS011;32542;52.832;13.816;2023-02-11T08:54:34;7.20;;;4.55;;
17253;SDS011;32542;52.832;13.816;2023-02-11T08:57:38;6.32;;;4.20;;
17253;SDS011;32542;52.832;13.816;2023-02-11T09:00:41;7.13;;;4.07;;
17253;SDS011;32542;52.832;13.816;2023-02-11T09:03:45;7.13;;;4.28;;
17253;SDS011;32542;52.832;13.816;2023-02-11T09:06:49;5.80;;;4.03;;
17253;SDS011;32542;52.832;13.816;2023-02-11T09:09:52;6.28;;;4.32;;
17253;SDS011;32542;52.832;13.816;2023-02-11T09:12:56;5.75;;;3.95;;
17253;SDS011;32542;52.832;13.816;2023-02-11T09:15:59;5.97;;;4.57;;
17253;SDS011;32542;52.832;13.816;2023-02-11T09:19:03;4.93;;;3.75;;
17253;SDS011;32542;52.832;13.816;2023-02-11T09:22:07;6.32;;;4.35;;
17253;SDS011;32542;52.832;13.816;2023-02-11T09:25:09;7.38;;;4.95;;
17253;SDS011;32542;52.832;13.816;2023-02-11T09:28:14;6.10;;;3.90;;
17253;SDS011;32542;52.832;13.816;2023-02-11T09:31:18;8.90;;;4.43;;
17253;SDS011;32542;52.832;13.816;2023-02-11T09:34:23;6.65;;;4.05;;
17253;SDS011;32542;52.832;13.816;2023-02-11T09:37:25;6.05;;;3.90;;
17253;SDS011;32542;52.832;13.816;2023-02-11T09:40:28;6.00;;;3.83;;
17253;SDS011;32542;52.832;13.816;2023-02-11T09:43:34;6.75;;;4.00;;
17253;SDS011;32542;52.832;13.816;2023-02-11T09:46:40;5.65;;;3.30;;
17253;SDS011;32542;52.832;13.816;2023-02-11T09:49:45;5.43;;;3.60;;
17253;SDS011;32542;52.832;13.816;2023-02-11T09:52:53;6.40;;;3.95;;
17253;SDS011;32542;52.832;13.816;2023-02-11T09:56:00;5.13;;;3.85;;
17253;SDS011;32542;52.832;13.816;2023-02-11T09:59:10;5.68;;;3.60;;
17253;SDS011;32542;52.832;13.816;2023-02-11T10:02:19;5.10;;;3.55;;
17253;SDS011;32542;52.832;13.816;2023-02-11T10:05:32;4.93;;;3.30;;
17253;SDS011;32542;52.832;13.816;2023-02-11T10:08:46;5.65;;;3.72;;
17253;SDS011;32542;52.832;13.816;2023-02-11T10:12:10;7.18;;;3.60;;
17253;SDS011;32542;52.832;13.816;2023-02-11T10:15:30;5.00;;;3.55;;
17253;SDS011;32542;52.832;13.816;2023-02-11T10:18:45;4.47;;;3.40;;
17253;SDS011;32542;52.832;13.816;2023-02-11T10:22:02;5.28;;;3.42;;
17253;SDS011;32542;52.832;13.816;2023-02-11T10:25:16;4.50;;;3.45;;
17253;SDS011;32542;52.832;13.816;2023-02-11T10:28:23;6.10;;;3.58;;
17253;SDS011;32542;52.832;13.816;2023-02-11T10:31:34;5.35;;;3.20;;
17253;SDS011;32542;52.832;13.816;2023-02-11T10:34:41;6.07;;;3.65;;
17253;SDS011;32542;52.832;13.816;2023-02-11T10:37:44;7.97;;;3.35;;
17253;SDS011;32542;52.832;13.816;2023-02-11T10:40:47;10.80;;;4.10;;
17253;SDS011;32542;52.832;13.816;2023-02-11T10:43:50;9.52;;;4.07;;
17253;SDS011;32542;52.832;13.816;2023-02-11T10:46:55;11.48;;;4.07;;
17253;SDS011;32542;52.832;13.816;2023-02-11T10:50:03;10.20;;;3.67;;
17253;SDS011;32542;52.832;13.816;2023-02-11T10:53:20;6.93;;;3.97;;
17253;SDS011;32542;52.832;13.816;2023-02-11T10:56:25;7.68;;;3.55;;
17253;SDS011;32542;52.832;13.816;2023-02-11T10:59:29;8.13;;;3.90;;
17253;SDS011;32542;52.832;13.816;2023-02-11T11:02:40;14.45;;;4.05;;
17253;SDS011;32542;52.832;13.816;2023-02-11T11:05:47;12.50;;;3.88;;
17253;SDS011;32542;52.832;13.816;2023-02-11T11:08:51;8.35;;;4.00;;
17253;SDS011;32542;52.832;13.816;2023-02-11T11:11:54;11.38;;;3.97;;
17253;SDS011;32542;52.832;13.816;2023-02-11T11:14:59;12.98;;;4.30;;
17253;SDS011;32542;52.832;13.816;2023-02-11T11:18:11;15.27;;;4.15;;
17253;SDS011;32542;52.832;13.816;2023-02-11T11:21:23;13.10;;;3.92;;
17253;SDS011;32542;52.832;13.816;2023-02-11T11:24:28;14.30;;;3.72;;
17253;SDS011;32542;52.832;13.816;2023-02-11T11:27:35;21.13;;;3.95;;
17253;SDS011;32542;52.832;13.816;2023-02-11T11:30:40;14.68;;;4.22;;
17253;SDS011;32542;52.832;13.816;2023-02-11T11:33:46;13.82;;;3.70;;
17253;SDS011;32542;52.832;13.816;2023-02-11T11:36:52;12.82;;;4.20;;
17253;SDS011;32542;52.832;13.816;2023-02-11T11:39:58;12.63;;;3.75;;
17253;SDS011;32542;52.832;13.816;2023-02-11T11:43:05;20.27;;;4.10;;
17253;SDS011;32542;52.832;13.816;2023-02-11T11:46:24;15.25;;;3.70;;
17253;SDS011;32542;52.832;13.816;2023-02-11T11:49:32;16.40;;;3.95;;
17253;SDS011;32542;52.832;13.816;2023-02-11T11:52:39;16.85;;;4.43;;
17253;SDS011;32542;52.832;13.816;2023-02-11T11:55:49;23.23;;;4.20;;
17253;SDS011;32542;52.832;13.816;2023-02-11T11:59:01;16.20;;;4.10;;
17253;SDS011;32542;52.832;13.816;2023-02-11T12:02:21;35.50;;;7.68;;
17253;SDS011;32542;52.832;13.816;2023-02-11T12:05:41;45.15;;;6.63;;
17253;SDS011;32542;52.832;13.816;2023-02-11T12:08:50;30.40;;;7.13;;
17253;SDS011;32542;52.832;13.816;2023-02-11T12:15:31;25.48;;;6.55;;
17253;SDS011;32542;52.832;13.816;2023-02-11T12:18:44;20.90;;;6.00;;
17253;SDS011;32542;52.832;13.816;2023-02-11T12:22:06;17.85;;;5.57;;
17253;SDS011;32542;52.832;13.816;2023-02-11T12:25:18;21.80;;;6.60;;
17253;SDS011;32542;52.832;13.816;2023-02-11T12:28:30;27.17;;;6.07;;
17253;SDS011;32542;52.832;13.816;2023-02-11T12:31:43;26.50;;;6.25;;
17253;SDS011;32542;52.832;13.816;2023-02-11T12:35:05;25.38;;;5.63;;
17253;SDS011;32542;52.832;13.816;2023-02-11T12:38:41;19.75;;;5.95;;
17253;SDS011;32542;52.832;13.816;2023-02-11T12:42:03;19.83;;;4.70;;
17253;SDS011;32542;52.832;13.816;2023-02-11T12:45:52;22.95;;;4.85;;
17253;SDS011;32542;52.832;13.816;2023-02-11T12:49:06;15.48;;;5.20;;
17253;SDS011;32542;52.832;13.816;2023-02-11T12:52:32;19.20;;;4.20;;
17253;SDS011;32542;52.832;13.816;2023-02-11T12:55:48;14.43;;;4.57;;
17253;SDS011;32542;52.832;13.816;2023-02-11T12:58:56;12.57;;;3.60;;
17253;SDS011;32542;52.832;13.816;2023-02-11T13:02:02;15.25;;;4.05;;
17253;SDS011;32542;52.832;13.816;2023-02-11T13:05:18;13.38;;;3.70;;
17253;SDS011;32542;52.832;13.816;2023-02-11T13:08:29;16.65;;;4.43;;
17253;SDS011;32542;52.832;13.816;2023-02-11T13:11:37;20.20;;;4.28;;
17253;SDS011;32542;52.832;13.816;2023-02-11T13:14:44;18.92;;;4.55;;
17253;SDS011;32542;52.832;13.816;2023-02-11T13:17:53;13.15;;;4.28;;
17253;SDS011;32542;52.832;13.816;2023-02-11T13:21:07;11.85;;;4.68;;
17253;SDS011;32542;52.832;13.816;2023-02-11T13:24:24;12.10;;;3.60;;
17253;SDS011;32542;52.832;13.816;2023-02-11T13:27:37;12.30;;;3.65;;
17253;SDS011;32542;52.832;13.816;2023-02-11T13:30:46;13.23;;;3.92;;
17253;SDS011;32542;52.832;13.816;2023-02-11T13:33:58;13.77;;;3.58;;
17253;SDS011;32542;52.832;13.816;2023-02-11T13:37:01;14.30;;;3.20;;
17253;SDS011;32542;52.832;13.816;2023-02-11T13:40:05;12.45;;;3.42;;
17253;SDS011;32542;52.832;13.816;2023-02-11T13:43:23;15.15;;;3.38;;
17253;SDS011;32542;52.832;13.816;2023-02-11T13:46:29;14.90;;;4.30;;
17253;SDS011;32542;52.832;13.816;2023-02-11T13:49:51;15.40;;;5.70;;
17253;SDS011;32542;52.832;13.816;2023-02-11T13:52:58;15.48;;;5.47;;
17253;SDS011;32542;52.832;13.816;2023-02-11T13:56:04;17.20;;;6.45;;
17253;SDS011;32542;52.832;13.816;2023-02-11T14:02:47;24.42;;;8.55;;
17253;SDS011;32542;52.832;13.816;2023-02-11T14:10:49;74.07;;;26.33;;
17253;SDS011;32542;52.832;13.816;2023-02-11T14:14:01;132.77;;;42.10;;
17253;SDS011;32542;52.832;13.816;2023-02-11T14:17:17;137.35;;;49.55;;
17253;SDS011;32542;52.832;13.816;2023-02-11T14:23:45;112.15;;;41.30;;
17253;SDS011;32542;52.832;13.816;2023-02-11T14:26:48;123.32;;;42.70;;
17253;SDS011;32542;52.832;13.816;2023-02-11T14:33:56;117.22;;;40.58;;
17253;SDS011;32542;52.832;13.816;2023-02-11T14:37:15;124.03;;;40.70;;
17253;SDS011;32542;52.832;13.816;2023-02-11T14:40:25;106.63;;;39.05;;
17253;SDS011;32542;52.832;13.816;2023-02-11T14:43:33;110.93;;;37.85;;
17253;SDS011;32542;52.832;13.816;2023-02-11T14:46:42;100.97;;;37.85;;
17253;SDS011;32542;52.832;13.816;2023-02-11T14:49:47;104.97;;;37.03;;
17253;SDS011;32542;52.832;13.816;2023-02-11T14:52:52;115.38;;;36.20;;
17253;SDS011;32542;52.832;13.816;2023-02-11T14:55:57;101.38;;;37.22;;
17253;SDS011;32542;52.832;13.816;2023-02-11T14:59:00;98.53;;;34.53;;
17253;SDS011;32542;52.832;13.816;2023-02-11T15:02:12;89.78;;;33.47;;
17253;SDS011;32542;52.832;13.816;2023-02-11T15:05:23;92.80;;;34.25;;
17253;SDS011;32542;52.832;13.816;2023-02-11T15:08:29;94.15;;;33.53;;
17253;SDS011;32542;52.832;13.816;2023-02-11T15:11:33;99.88;;;34.33;;
17253;SDS011;32542;52.832;13.816;2023-02-11T15:14:40;93.43;;;33.20;;
17253;SDS011;32542;52.832;13.816;2023-02-11T15:17:48;91.80;;;32.38;;
17253;SDS011;32542;52.832;13.816;2023-02-11T15:20:51;85.40;;;30.70;;
17253;SDS011;32542;52.832;13.816;2023-02-11T15:23:58;81.90;;;28.80;;
17253;SDS011;32542;52.832;13.816;2023-02-11T15:27:03;75.20;;;27.52;;
17253;SDS011;32542;52.832;13.816;2023-02-11T15:30:21;78.85;;;27.45;;
17253;SDS011;32542;52.832;13.816;2023-02-11T15:33:27;80.97;;;29.88;;
17253;SDS011;32542;52.832;13.816;2023-02-11T15:36:32;78.90;;;27.65;;
17253;SDS011;32542;52.832;13.816;2023-02-11T15:39:38;73.78;;;27.05;;
17253;SDS011;32542;52.832;13.816;2023-02-11T15:42:51;80.22;;;27.92;;
17253;SDS011;32542;52.832;13.816;2023-02-11T15:45:59;71.13;;;28.58;;
17253;SDS011;32542;52.832;13.816;2023-02-11T15:49:03;76.72;;;29.67;;
17253;SDS011;32542;52.832;13.816;2023-02-11T15:52:08;78.97;;;29.88;;
17253;SDS011;32542;52.832;13.816;2023-02-11T15:55:14;80.47;;;29.98;;
17253;SDS011;32542;52.832;13.816;2023-02-11T15:58:19;70.75;;;30.08;;
17253;SDS011;32542;52.832;13.816;2023-02-11T16:01:28;73.22;;;29.55;;
17253;SDS011;32542;52.832;13.816;2023-02-11T16:04:34;71.00;;;29.05;;
17253;SDS011;32542;52.832;13.816;2023-02-11T16:07:40;68.88;;;29.02;;
17253;SDS011;32542;52.832;13.816;2023-02-11T16:10:53;68.20;;;27.25;;
17253;SDS011;32542;52.832;13.816;2023-02-11T16:13:59;74.07;;;28.25;;
17253;SDS011;32542;52.832;13.816;2023-02-11T16:17:07;69.57;;;29.08;;
17253;SDS011;32542;52.832;13.816;2023-02-11T16:20:16;72.65;;;29.25;;
17253;SDS011;32542;52.832;13.816;2023-02-11T16:23:21;66.15;;;27.65;;
17253;SDS011;32542;52.832;13.816;2023-02-11T16:26:30;62.65;;;27.92;;
17253;SDS011;32542;52.832;13.816;2023-02-11T16:29:35;68.65;;;26.77;;
17253;SDS011;32542;52.832;13.816;2023-02-11T16:32:38;64.70;;;27.05;;
17253;SDS011;32542;52.832;13.816;2023-02-11T16:35:41;67.50;;;27.85;;
17253;SDS011;32542;52.832;13.816;2023-02-11T16:38:47;66.35;;;27.48;;
17253;SDS011;32542;52.832;13.816;2023-02-11T16:41:52;59.78;;;26.27;;
17253;SDS011;32542;52.832;13.816;2023-02-11T16:44:56;68.28;;;26.95;;
17253;SDS011;32542;52.832;13.816;2023-02-11T16:48:00;52.88;;;24.85;;
17253;SDS011;32542;52.832;13.816;2023-02-11T16:51:03;58.28;;;25.50;;
17253;SDS011;32542;52.832;13.816;2023-02-11T16:54:11;54.08;;;24.73;;
17253;SDS011;32542;52.832;13.816;2023-02-11T16:57:17;60.50;;;25.30;;
17253;SDS011;32542;52.832;13.816;2023-02-11T17:00:22;60.90;;;23.92;;
17253;SDS011;32542;52.832;13.816;2023-02-11T17:03:25;57.58;;;24.10;;
17253;SDS011;32542;52.832;13.816;2023-02-11T17:06:31;65.10;;;23.67;;
17253;SDS011;32542;52.832;13.816;2023-02-11T17:09:34;53.33;;;21.02;;
17253;SDS011;32542;52.832;13.816;2023-02-11T17:12:39;48.10;;;19.33;;
17253;SDS011;32542;52.832;13.816;2023-02-11T17:15:42;52.00;;;20.10;;
17253;SDS011;32542;52.832;13.816;2023-02-11T17:18:45;41.05;;;18.92;;
17253;SDS011;32542;52.832;13.816;2023-02-11T17:21:48;39.10;;;17.42;;
17253;SDS011;32542;52.832;13.816;2023-02-11T17:24:53;46.83;;;18.40;;
17253;SDS011;32542;52.832;13.816;2023-02-11T17:27:59;37.90;;;16.95;;
17253;SDS011;32542;52.832;13.816;2023-02-11T17:31:05;39.88;;;17.38;;
17253;SDS011;32542;52.832;13.816;2023-02-11T17:34:10;38.15;;;16.48;;
17253;SDS011;32542;52.832;13.816;2023-02-11T17:37:15;38.17;;;16.63;;
17253;SDS011;32542;52.832;13.816;2023-02-11T17:40:18;34.08;;;16.38;;
17253;SDS011;32542;52.832;13.816;2023-02-11T17:43:23;356.60;;;146.60;;
17253;SDS011;32542;52.832;13.816;2023-02-11T17:46:27;510.70;;;161.88;;
17253;SDS011;32542;52.832;13.816;2023-02-11T17:49:30;195.07;;;65.45;;
17253;SDS011;32542;52.832;13.816;2023-02-11T17:52:33;94.30;;;33.45;;
17253;SDS011;32542;52.832;13.816;2023-02-11T17:55:37;92.00;;;30.77;;
17253;SDS011;32542;52.832;13.816;2023-02-11T17:58:42;99.55;;;34.85;;
17253;SDS011;32542;52.832;13.816;2023-02-11T18:01:45;105.47;;;34.40;;
17253;SDS011;32542;52.832;13.816;2023-02-11T18:04:48;104.13;;;35.13;;
17253;SDS011;32542;52.832;13.816;2023-02-11T18:07:54;98.35;;;34.38;;
17253;SDS011;32542;52.832;13.816;2023-02-11T18:10:57;101.60;;;34.45;;
17253;SDS011;32542;52.832;13.816;2023-02-11T18:14:01;108.63;;;34.60;;
17253;SDS011;32542;52.832;13.816;2023-02-11T18:17:08;105.40;;;33.30;;
17253;SDS011;32542;52.832;13.816;2023-02-11T18:20:11;94.03;;;31.60;;
17253;SDS011;32542;52.832;13.816;2023-02-11T18:23:14;95.95;;;31.88;;
17253;SDS011;32542;52.832;13.816;2023-02-11T18:26:18;100.32;;;31.50;;
17253;SDS011;32542;52.832;13.816;2023-02-11T18:29:24;96.65;;;32.67;;
17253;SDS011;32542;52.832;13.816;2023-02-11T18:32:26;97.90;;;30.73;;
17253;SDS011;32542;52.832;13.816;2023-02-11T18:35:29;91.80;;;31.27;;